Time;durP1;ratioP1;P1;durP2;ratioP2;P2;SDS_P1;SDS_P2;PMS_P1;PMS_P2;Temp;Humidity;BMP_temperature;BMP_pressure;BME280_temperature;BME280_humidity;BME280_pressure;Samples;Min_cycle;Max_cycle;Signal;HPM_P1;HPM_P2
2022/06/07 00:00:27;;;;;;;;;;;21.30;56.10;;;;;;5170065;27;19927;-48
2022/06/07 00:02:53;;;;;;;;;;;21.50;54.40;;;;;;5163987;27;19923;-45
2022/06/07 00:05:19;;;;;;;;;;;20.50;54.00;;;;;;5164075;27;19960;-45
2022/06/07 00:07:45;;;;;;;;;;;20.20;53.40;;;;;;5150085;27;19974;-48
2022/06/07 00:10:11;;;;;;;;;;;20.00;53.20;;;;;;5161836;27;19927;-45
2022/06/07 00:12:37;;;;;;;;;;;19.80;52.90;;;;;;5163479;27;19923;-45
2022/06/07 00:15:03;;;;;;;;;;;20.00;52.50;;;;;;5169072;27;19922;-44
2022/06/07 00:17:29;;;;;;;;;;;19.70;52.90;;;;;;5143473;27;20320;-44
2022/06/07 00:19:54;;;;;;;;;;;20.30;54.20;;;;;;5169541;27;19923;-45
2022/06/07 00:22:20;;;;;;;;;;;21.10;55.60;;;;;;5163802;27;19926;-47
2022/06/07 00:24:46;;;;;;;;;;;21.60;54.80;;;;;;5163916;27;19923;-46
2022/06/07 00:27:13;;;;;;;;;;;20.60;53.70;;;;;;5167051;27;19922;-48
2022/06/07 00:29:38;;;;;;;;;;;20.10;53.60;;;;;;5162471;27;20390;-48
2022/06/07 00:32:05;;;;;;;;;;;19.90;53.30;;;;;;5144762;27;20129;-44
2022/06/07 00:34:30;;;;;;;;;;;19.80;52.90;;;;;;5169240;27;20407;-45
2022/06/07 00:36:56;;;;;;;;;;;19.80;52.60;;;;;;5163423;27;19941;-45
2022/06/07 00:39:22;;;;;;;;;;;20.60;55.20;;;;;;5150610;27;20422;-48
2022/06/07 00:41:48;;;;;;;;;;;21.30;55.00;;;;;;5163335;27;19926;-48
2022/06/07 00:44:26;;;;;;;;;;;21.20;53.50;;;;;;5162805;27;19923;-47
2022/06/07 00:46:53;;;;;;;;;;;20.20;53.80;;;;;;5167044;27;19976;-48
2022/06/07 00:49:19;;;;;;;;;;;19.90;53.30;;;;;;5163027;27;19927;-45
2022/06/07 00:51:45;;;;;;;;;;;19.80;53.10;;;;;;5163157;27;20431;-45
2022/06/07 00:54:18;;;;;;;;;;;19.70;52.40;;;;;;5169067;27;19927;-45
2022/06/07 00:56:43;;;;;;;;;;;20.00;52.90;;;;;;5163461;27;19922;-45
2022/06/07 00:59:09;;;;;;;;;;;20.80;55.40;;;;;;5163392;27;19923;-48
2022/06/07 01:01:35;;;;;;;;;;;21.50;54.50;;;;;;5168806;27;19926;-49
2022/06/07 01:04:01;;;;;;;;;;;20.90;53.10;;;;;;5160645;27;20255;-49
2022/06/07 01:11:55;;;;;;;;;;;19.80;52.80;;;;;;5163078;27;19927;-46
2022/06/07 01:14:21;;;;;;;;;;;19.80;52.30;;;;;;5166505;27;19944;-53
2022/06/07 01:16:47;;;;;;;;;;;19.80;52.30;;;;;;5165518;27;19945;-45
2022/06/07 01:19:12;;;;;;;;;;;20.60;54.70;;;;;;5162668;27;19930;-47
2022/06/07 01:21:41;;;;;;;;;;;21.40;54.50;;;;;;5166786;27;19984;-49
2022/06/07 01:24:07;;;;;;;;;;;21.00;53.60;;;;;;5161292;27;19923;-47
2022/06/07 01:26:32;;;;;;;;;;;20.00;54.40;;;;;;5162637;27;19933;-46
2022/06/07 01:28:58;;;;;;;;;;;19.90;53.50;;;;;;5168454;27;20423;-47
2022/06/07 01:31:24;;;;;;;;;;;19.90;52.50;;;;;;5163004;27;19927;-46
2022/06/07 01:33:50;;;;;;;;;;;19.80;52.30;;;;;;5163026;27;19930;-52
2022/06/07 01:36:16;;;;;;;;;;;20.10;54.50;;;;;;5168482;27;19923;-48
2022/06/07 01:38:42;;;;;;;;;;;21.00;55.80;;;;;;5142847;27;20060;-46
2022/06/07 01:43:52;;;;;;;;;;;20.50;54.40;;;;;;5164379;27;19923;-46
2022/06/07 01:46:18;;;;;;;;;;;19.80;54.90;;;;;;5162180;27;20013;-45
2022/06/07 01:48:46;;;;;;;;;;;19.60;54.10;;;;;;5168080;27;20487;-43
2022/06/07 01:51:12;;;;;;;;;;;19.90;52.90;;;;;;5162506;27;19927;-45
2022/06/07 01:53:37;;;;;;;;;;;19.90;52.70;;;;;;5163160;27;19937;-43
2022/06/07 01:56:07;;;;;;;;;;;20.20;55.00;;;;;;5168287;27;20020;-44
2022/06/07 01:58:33;;;;;;;;;;;21.10;56.40;;;;;;5161047;27;19929;-46
2022/06/07 02:00:59;;;;;;;;;;;21.60;55.80;;;;;;5160764;27;20366;-45
2022/06/07 02:03:24;;;;;;;;;;;20.50;55.60;;;;;;5167265;27;19927;-46
2022/06/07 02:05:57;;;;;;;;;;;19.90;55.20;;;;;;5162841;27;19927;-44
2022/06/07 02:08:23;;;;;;;;;;;19.70;54.60;;;;;;5168236;27;19933;-45
2022/06/07 02:10:49;;;;;;;;;;;19.60;54.30;;;;;;5162603;27;20370;-45
2022/06/07 02:13:15;;;;;;;;;;;19.80;53.60;;;;;;5162554;27;19943;-46
2022/06/07 02:15:40;;;;;;;;;;;20.00;55.20;;;;;;5168200;27;19922;-43
2022/06/07 02:18:06;;;;;;;;;;;20.80;58.50;;;;;;5161297;27;19923;-45
2022/06/07 02:20:32;;;;;;;;;;;21.40;58.50;;;;;;5161208;27;19926;-47
2022/06/07 02:22:58;;;;;;;;;;;20.90;56.60;;;;;;5167443;27;19936;-45
2022/06/07 02:25:24;;;;;;;;;;;19.90;56.60;;;;;;5162337;27;19954;-44
2022/06/07 02:27:50;;;;;;;;;;;19.80;55.20;;;;;;5167375;27;19927;-50
2022/06/07 02:30:16;;;;;;;;;;;19.80;54.00;;;;;;5163577;27;20439;-43
2022/06/07 02:32:42;;;;;;;;;;;19.80;53.90;;;;;;5162813;27;19927;-44
2022/06/07 02:35:08;;;;;;;;;;;20.50;58.90;;;;;;5167026;27;19960;-48
2022/06/07 02:37:34;;;;;;;;;;;21.30;59.30;;;;;;5160868;27;19923;-44
2022/06/07 02:40:00;;;;;;;;;;;21.40;56.90;;;;;;5161424;27;20009;-46
2022/06/07 02:42:26;;;;;;;;;;;20.20;56.60;;;;;;5148833;27;19936;-45
2022/06/07 02:44:52;;;;;;;;;;;20.10;54.70;;;;;;5162467;27;19922;-45
2022/06/07 02:47:18;;;;;;;;;;;19.80;54.40;;;;;;5164227;27;19930;-55
2022/06/07 02:49:44;;;;;;;;;;;19.30;55.00;;;;;;5166223;27;19960;-44
2022/06/07 02:52:10;;;;;;;;;;;20.30;56.40;;;;;;5163386;27;19926;-46
2022/06/07 02:54:36;;;;;;;;;;;21.00;58.30;;;;;;5166139;27;19922;-47
2022/06/07 02:57:02;;;;;;;;;;;21.50;57.30;;;;;;5161037;27;19923;-45
2022/06/07 02:59:28;;;;;;;;;;;20.40;55.70;;;;;;5161919;27;20400;-45
2022/06/07 03:01:53;;;;;;;;;;;19.80;54.80;;;;;;5167236;27;19922;-44
2022/06/07 03:04:19;;;;;;;;;;;19.80;54.30;;;;;;5162266;27;19923;-45
2022/06/07 03:06:45;;;;;;;;;;;19.30;54.20;;;;;;5161931;27;20370;-48
2022/06/07 03:09:11;;;;;;;;;;;19.70;54.20;;;;;;5167133;27;19941;-44
2022/06/07 03:11:37;;;;;;;;;;;20.70;57.00;;;;;;5162060;27;20323;-46
2022/06/07 03:14:03;;;;;;;;;;;21.40;56.60;;;;;;5164906;27;20013;-46
2022/06/07 03:16:32;;;;;;;;;;;21.30;55.00;;;;;;5163382;27;20281;-45
2022/06/07 03:18:57;;;;;;;;;;;20.10;55.20;;;;;;5164660;27;19927;-46
2022/06/07 03:21:23;;;;;;;;;;;19.90;53.80;;;;;;5170453;27;20036;-44
2022/06/07 03:23:49;;;;;;;;;;;19.80;53.20;;;;;;5164906;27;19929;-44
2022/06/07 03:26:15;;;;;;;;;;;19.80;53.40;;;;;;5165122;27;20021;-47
2022/06/07 03:28:41;;;;;;;;;;;20.60;56.40;;;;;;5170343;27;19978;-45
2022/06/07 03:31:08;;;;;;;;;;;21.30;55.80;;;;;;5162327;27;20006;-47
2022/06/07 03:33:36;;;;;;;;;;;20.80;54.60;;;;;;5169228;27;19944;-44
2022/06/07 03:36:06;;;;;;;;;;;20.00;54.70;;;;;;5164793;27;19923;-44
2022/06/07 03:38:32;;;;;;;;;;;19.90;53.50;;;;;;5164695;27;19970;-47
2022/06/07 03:40:57;;;;;;;;;;;19.70;52.80;;;;;;5170294;27;19939;-45
2022/06/07 03:43:23;;;;;;;;;;;19.80;53.60;;;;;;5164749;27;19923;-46
2022/06/07 03:45:49;;;;;;;;;;;20.70;56.40;;;;;;5164318;27;19923;-48
2022/06/07 03:48:15;;;;;;;;;;;21.40;55.30;;;;;;5169062;27;19974;-46
2022/06/07 03:50:41;;;;;;;;;;;20.70;54.30;;;;;;5162210;27;19922;-45
2022/06/07 03:53:06;;;;;;;;;;;20.10;53.50;;;;;;5165927;27;19923;-54
2022/06/07 03:55:32;;;;;;;;;;;19.80;52.90;;;;;;5168103;27;19962;-42
2022/06/07 03:57:58;;;;;;;;;;;19.70;52.10;;;;;;5164301;27;20312;-44
2022/06/07 04:00:24;;;;;;;;;;;20.10;54.50;;;;;;5170069;27;19922;-45
2022/06/07 04:02:50;;;;;;;;;;;21.00;55.30;;;;;;5164431;27;20328;-44
2022/06/07 04:05:15;;;;;;;;;;;21.50;54.10;;;;;;5164349;27;20374;-44
2022/06/07 04:10:26;;;;;;;;;;;19.90;53.30;;;;;;5163137;27;19924;-44
2022/06/07 04:12:51;;;;;;;;;;;19.80;52.10;;;;;;5163755;27;20249;-43
2022/06/07 04:15:18;;;;;;;;;;;19.80;53.00;;;;;;5169471;27;19923;-44
2022/06/07 04:17:43;;;;;;;;;;;20.70;55.80;;;;;;5163958;27;19998;-45
2022/06/07 04:20:10;;;;;;;;;;;21.30;54.70;;;;;;5167792;27;19976;-53
2022/06/07 04:22:36;;;;;;;;;;;20.70;53.50;;;;;;5166601;27;20017;-43
2022/06/07 04:25:01;;;;;;;;;;;20.00;53.50;;;;;;5162595;27;20442;-49
2022/06/07 04:27:27;;;;;;;;;;;19.90;52.60;;;;;;5166890;27;19951;-42
2022/06/07 04:29:53;;;;;;;;;;;19.80;53.00;;;;;;5163298;27;19922;-43
2022/06/07 04:32:20;;;;;;;;;;;20.60;55.50;;;;;;5163532;27;20362;-42
2022/06/07 04:34:46;;;;;;;;;;;21.40;54.20;;;;;;5169119;27;19942;-44
2022/06/07 04:37:12;;;;;;;;;;;20.90;53.20;;;;;;5163752;27;20527;-43
2022/06/07 04:39:37;;;;;;;;;;;19.90;53.70;;;;;;5164025;27;19945;-51
2022/06/07 04:42:03;;;;;;;;;;;19.90;52.60;;;;;;5169053;27;19931;-44
2022/06/07 04:44:30;;;;;;;;;;;19.70;52.40;;;;;;5142954;27;19923;-46
2022/06/07 04:46:56;;;;;;;;;;;19.70;52.60;;;;;;5168280;27;19944;-44
2022/06/07 04:49:22;;;;;;;;;;;20.70;55.20;;;;;;5162926;27;20390;-44
2022/06/07 04:51:48;;;;;;;;;;;21.40;54.20;;;;;;5163350;27;19923;-45
2022/06/07 04:54:14;;;;;;;;;;;20.90;53.10;;;;;;5169094;27;19922;-45
2022/06/07 04:56:40;;;;;;;;;;;20.00;53.20;;;;;;5163455;27;19998;-45
2022/06/07 04:59:06;;;;;;;;;;;19.80;52.80;;;;;;5163212;27;20029;-44
2022/06/07 05:01:33;;;;;;;;;;;19.90;52.90;;;;;;5168041;27;19956;-46
2022/06/07 05:03:58;;;;;;;;;;;20.70;55.70;;;;;;5160709;27;20446;-44
2022/06/07 05:06:24;;;;;;;;;;;21.40;54.00;;;;;;5168467;27;19925;-44
2022/06/07 05:08:51;;;;;;;;;;;20.50;53.90;;;;;;5162900;27;19972;-44
2022/06/07 05:11:17;;;;;;;;;;;20.00;53.30;;;;;;5163237;27;20305;-45
2022/06/07 05:13:42;;;;;;;;;;;19.80;52.50;;;;;;5148198;27;19930;-42
2022/06/07 05:16:08;;;;;;;;;;;19.80;51.90;;;;;;5144566;27;19923;-44
2022/06/07 05:18:34;;;;;;;;;;;20.50;56.00;;;;;;5163128;27;20199;-45
2022/06/07 05:21:03;;;;;;;;;;;21.30;55.20;;;;;;5166709;27;20396;-49
2022/06/07 05:23:29;;;;;;;;;;;21.30;53.60;;;;;;5141573;27;20025;-44
2022/06/07 05:26:00;;;;;;;;;;;20.20;54.10;;;;;;5167302;27;19991;-54
2022/06/07 05:28:26;;;;;;;;;;;20.10;52.80;;;;;;5148283;27;20401;-43
2022/06/07 05:30:52;;;;;;;;;;;19.80;52.40;;;;;;5162749;27;19941;-44
2022/06/07 05:33:18;;;;;;;;;;;20.40;56.00;;;;;;5168395;27;19923;-44
2022/06/07 05:35:44;;;;;;;;;;;21.20;55.50;;;;;;5162665;27;20370;-48
2022/06/07 05:38:12;;;;;;;;;;;21.10;53.90;;;;;;5161155;27;19935;-46
2022/06/07 05:40:38;;;;;;;;;;;20.10;54.70;;;;;;5130103;27;19927;-47
2022/06/07 05:43:04;;;;;;;;;;;19.90;53.40;;;;;;5162228;27;19929;-43
2022/06/07 05:45:31;;;;;;;;;;;19.70;52.90;;;;;;5162425;27;20447;-43
2022/06/07 05:47:57;;;;;;;;;;;20.00;54.60;;;;;;5168219;27;20411;-46
2022/06/07 05:50:23;;;;;;;;;;;20.80;56.60;;;;;;5162637;27;19980;-47
2022/06/07 05:52:48;;;;;;;;;;;21.50;55.20;;;;;;5168244;27;19945;-46
2022/06/07 05:55:14;;;;;;;;;;;20.60;54.50;;;;;;5162020;27;19938;-47
2022/06/07 05:57:40;;;;;;;;;;;20.00;53.80;;;;;;5160077;27;19924;-47
2022/06/07 06:00:06;;;;;;;;;;;19.90;53.30;;;;;;5166134;27;19970;-45
2022/06/07 06:02:32;;;;;;;;;;;19.60;53.10;;;;;;5161885;27;20377;-46
2022/06/07 06:04:58;;;;;;;;;;;20.60;56.50;;;;;;5162028;27;19976;-45
2022/06/07 06:07:24;;;;;;;;;;;21.30;55.70;;;;;;5167846;27;19923;-45
2022/06/07 06:12:34;;;;;;;;;;;20.30;53.90;;;;;;5162051;27;20297;-45
2022/06/07 06:15:00;;;;;;;;;;;19.90;53.40;;;;;;5166841;27;19978;-45
2022/06/07 06:17:26;;;;;;;;;;;19.70;53.20;;;;;;5159541;27;20037;-46
2022/06/07 06:19:52;;;;;;;;;;;20.30;56.40;;;;;;5167425;27;20675;-47
2022/06/07 06:22:17;;;;;;;;;;;21.20;56.20;;;;;;5161805;27;19934;-49
2022/06/07 06:24:43;;;;;;;;;;;21.50;54.10;;;;;;5162180;27;19931;-45
2022/06/07 06:27:09;;;;;;;;;;;20.30;54.40;;;;;;5167631;27;19924;-46
2022/06/07 06:29:36;;;;;;;;;;;20.00;53.80;;;;;;5161973;27;19978;-45
2022/06/07 06:32:02;;;;;;;;;;;19.80;53.10;;;;;;5161843;27;20275;-46
2022/06/07 06:34:29;;;;;;;;;;;19.80;54.50;;;;;;5165054;27;19976;-48
2022/06/07 06:36:56;;;;;;;;;;;20.80;56.50;;;;;;5160279;27;19926;-46
2022/06/07 06:39:22;;;;;;;;;;;21.50;55.50;;;;;;5166901;27;20556;-46
2022/06/07 06:41:48;;;;;;;;;;;20.60;54.60;;;;;;5161687;27;19944;-47
2022/06/07 06:44:14;;;;;;;;;;;20.10;54.40;;;;;;5143012;27;19977;-46
2022/06/07 06:46:41;;;;;;;;;;;19.90;53.40;;;;;;5167691;27;19922;-44
2022/06/07 06:49:07;;;;;;;;;;;19.80;53.00;;;;;;5162049;27;19974;-47
2022/06/07 06:51:33;;;;;;;;;;;20.20;55.60;;;;;;5165126;27;19926;-46
2022/06/07 06:53:59;;;;;;;;;;;21.10;56.40;;;;;;5168055;27;19941;-47
2022/06/07 06:56:25;;;;;;;;;;;21.70;54.90;;;;;;5165013;27;19927;-46
2022/06/07 06:58:52;;;;;;;;;;;20.40;54.60;;;;;;5169010;27;19969;-55
2022/06/07 07:01:22;;;;;;;;;;;20.20;53.70;;;;;;5167955;27;19923;-48
2022/06/07 07:03:48;;;;;;;;;;;20.00;53.10;;;;;;5164927;27;19937;-46
2022/06/07 07:06:14;;;;;;;;;;;19.80;52.70;;;;;;5170951;27;20276;-44
2022/06/07 07:08:40;;;;;;;;;;;19.80;53.60;;;;;;5164720;27;19923;-46
2022/06/07 07:11:07;;;;;;;;;;;20.60;56.50;;;;;;5163009;27;19939;-46
2022/06/07 07:13:33;;;;;;;;;;;21.30;55.90;;;;;;5169076;27;19931;-47
2022/06/07 07:15:59;;;;;;;;;;;21.50;54.20;;;;;;5164284;27;19923;-49
2022/06/07 07:18:25;;;;;;;;;;;20.50;54.00;;;;;;5164855;27;19937;-46
2022/06/07 07:20:51;;;;;;;;;;;20.10;53.40;;;;;;5170682;27;19931;-46
2022/06/07 07:23:17;;;;;;;;;;;19.80;52.90;;;;;;5164978;27;20001;-46
2022/06/07 07:25:43;;;;;;;;;;;19.80;52.00;;;;;;5170401;27;19971;-47
2022/06/07 07:28:09;;;;;;;;;;;20.50;56.50;;;;;;5164462;27;19926;-48
2022/06/07 07:30:34;;;;;;;;;;;21.30;56.00;;;;;;5161798;27;20952;-44
2022/06/07 07:33:00;;;;;;;;;;;21.70;54.20;;;;;;5169520;27;19922;-45
2022/06/07 07:35:26;;;;;;;;;;;20.50;54.40;;;;;;5164145;27;20445;-49
2022/06/07 07:37:52;;;;;;;;;;;20.00;53.70;;;;;;5164734;27;20492;-47
2022/06/07 07:40:18;;;;;;;;;;;19.80;52.90;;;;;;5170083;27;20007;-47
2022/06/07 07:42:43;;;;;;;;;;;19.80;52.20;;;;;;5164851;27;20013;-47
2022/06/07 07:45:10;;;;;;;;;;;20.30;56.50;;;;;;5170032;27;19949;-46
2022/06/07 07:47:35;;;;;;;;;;;21.20;56.20;;;;;;5162684;27;19927;-45
2022/06/07 07:50:01;;;;;;;;;;;21.80;54.20;;;;;;5162786;27;19923;-46
2022/06/07 07:52:27;;;;;;;;;;;20.80;54.20;;;;;;5169800;27;19927;-51
2022/06/07 07:54:53;;;;;;;;;;;20.10;53.60;;;;;;5164324;27;20422;-47
2022/06/07 07:57:18;;;;;;;;;;;19.90;53.10;;;;;;5164225;27;19922;-46
2022/06/07 07:59:44;;;;;;;;;;;19.80;52.10;;;;;;5170044;27;19923;-48
2022/06/07 08:02:17;;;;;;;;;;;19.80;54.60;;;;;;5163550;27;19927;-45
2022/06/07 08:04:42;;;;;;;;;;;20.80;56.30;;;;;;5148038;27;19927;-52
2022/06/07 08:07:08;;;;;;;;;;;21.60;54.50;;;;;;5164868;27;20152;-46
2022/06/07 08:09:34;;;;;;;;;;;21.00;53.50;;;;;;5163439;27;19967;-48
2022/06/07 08:12:05;;;;;;;;;;;20.30;53.70;;;;;;5169531;27;19931;-47
2022/06/07 08:14:31;;;;;;;;;;;20.10;52.90;;;;;;5163741;27;19923;-49
2022/06/07 08:16:57;;;;;;;;;;;19.80;52.20;;;;;;5163818;27;20052;-47
2022/06/07 08:19:22;;;;;;;;;;;19.80;53.90;;;;;;5169912;27;20385;-46
2022/06/07 08:21:48;;;;;;;;;;;20.60;56.10;;;;;;5163618;27;19960;-47
2022/06/07 08:24:14;;;;;;;;;;;21.50;54.60;;;;;;5162001;27;19977;-48
2022/06/07 08:26:40;;;;;;;;;;;21.50;53.10;;;;;;5167769;27;19958;-46
2022/06/07 08:29:05;;;;;;;;;;;20.40;53.50;;;;;;5163014;27;19922;-46
2022/06/07 08:31:31;;;;;;;;;;;20.00;52.80;;;;;;5169309;27;19949;-46
2022/06/07 08:39:26;;;;;;;;;;;20.80;55.50;;;;;;5168647;27;20078;-52
2022/06/07 08:41:53;;;;;;;;;;;21.70;53.60;;;;;;5163483;27;19930;-51
2022/06/07 08:44:23;;;;;;;;;;;21.00;53.20;;;;;;5161177;27;19948;-49
2022/06/07 08:46:50;;;;;;;;;;;20.30;53.00;;;;;;5149991;27;19971;-46
2022/06/07 08:49:16;;;;;;;;;;;19.80;53.00;;;;;;5144430;27;19923;-48
2022/06/07 08:51:49;;;;;;;;;;;19.80;51.90;;;;;;5144765;27;20438;-46
2022/06/07 08:54:17;;;;;;;;;;;20.50;55.50;;;;;;5169170;27;20395;-47
2022/06/07 08:56:44;;;;;;;;;;;21.50;54.10;;;;;;5163401;27;19931;-45
2022/06/07 08:59:11;;;;;;;;;;;21.50;52.80;;;;;;5144663;27;19934;-45
2022/06/07 09:01:55;;;;;;;;;;;20.70;52.80;;;;;;5166389;27;19922;-47
2022/06/07 09:04:25;;;;;;;;;;;20.10;52.60;;;;;;5162346;27;19927;-45
2022/06/07 09:06:56;;;;;;;;;;;19.80;52.10;;;;;;5162969;27;20152;-46
2022/06/07 09:09:22;;;;;;;;;;;19.80;51.50;;;;;;5168917;27;20149;-47
2022/06/07 09:14:38;;;;;;;;;;;21.40;54.10;;;;;;5146286;27;19923;-46
2022/06/07 09:17:05;;;;;;;;;;;21.60;52.50;;;;;;5168375;27;20011;-46
2022/06/07 09:19:31;;;;;;;;;;;20.50;52.90;;;;;;5160992;27;20412;-45
2022/06/07 09:21:58;;;;;;;;;;;20.30;51.90;;;;;;5146802;27;19929;-46
2022/06/07 09:24:26;;;;;;;;;;;19.80;52.10;;;;;;5162504;27;20374;-46
2022/06/07 09:26:51;;;;;;;;;;;19.80;53.30;;;;;;5144171;27;19923;-46
2022/06/07 09:29:21;;;;;;;;;;;20.70;55.00;;;;;;5149739;27;20309;-45
2022/06/07 09:31:47;;;;;;;;;;;21.60;53.30;;;;;;5162716;27;19937;-45
2022/06/07 09:34:17;;;;;;;;;;;21.30;52.20;;;;;;5162571;27;19927;-44
2022/06/07 09:36:43;;;;;;;;;;;20.50;52.60;;;;;;5168090;27;19936;-46
2022/06/07 09:39:15;;;;;;;;;;;19.90;52.40;;;;;;5139521;27;19978;-49
2022/06/07 09:41:52;;;;;;;;;;;19.70;52.20;;;;;;5161869;27;20297;-47
2022/06/07 09:44:30;;;;;;;;;;;20.50;55.20;;;;;;5148759;27;20358;-46
2022/06/07 09:46:58;;;;;;;;;;;21.50;53.20;;;;;;5162485;27;19923;-45
2022/06/07 09:49:28;;;;;;;;;;;21.30;52.20;;;;;;5162538;27;19923;-45
2022/06/07 09:51:53;;;;;;;;;;;20.60;52.30;;;;;;5164285;27;20044;-47
2022/06/07 09:54:20;;;;;;;;;;;20.20;51.90;;;;;;5162105;27;20009;-45
2022/06/07 09:56:46;;;;;;;;;;;19.80;51.70;;;;;;5165668;27;20341;-46
2022/06/07 09:59:12;;;;;;;;;;;20.50;54.60;;;;;;5160908;27;19927;-45
2022/06/07 10:01:52;;;;;;;;;;;21.40;53.30;;;;;;5161749;27;20537;-45
2022/06/07 10:04:44;;;;;;;;;;;21.40;51.80;;;;;;5167719;27;20045;-45
2022/06/07 10:07:16;;;;;;;;;;;20.40;52.50;;;;;;5161453;27;19926;-45
2022/06/07 10:09:51;;;;;;;;;;;20.00;51.80;;;;;;5162500;27;20190;-45
2022/06/07 10:12:21;;;;;;;;;;;19.80;51.60;;;;;;5149123;27;20446;-45
2022/06/07 10:15:02;;;;;;;;;;;20.30;54.40;;;;;;5142632;27;20020;-46
2022/06/07 10:17:31;;;;;;;;;;;21.20;53.50;;;;;;5160855;27;19964;-47
2022/06/07 10:20:13;;;;;;;;;;;21.80;51.60;;;;;;5167446;27;19922;-45
2022/06/07 10:22:54;;;;;;;;;;;20.60;52.30;;;;;;5147600;27;19923;-45
2022/06/07 10:25:25;;;;;;;;;;;20.30;51.60;;;;;;5125789;27;19929;-47
2022/06/07 10:28:26;;;;;;;;;;;19.90;51.50;;;;;;5166675;27;19923;-53
2022/06/07 10:31:00;;;;;;;;;;;20.00;53.10;;;;;;5062324;28;20010;-46
2022/06/07 10:33:28;;;;;;;;;;;21.10;53.60;;;;;;5142923;27;20353;-46
2022/06/07 10:35:58;;;;;;;;;;;21.90;51.30;;;;;;5159716;27;21658;-44
2022/06/07 10:38:27;;;;;;;;;;;20.70;52.30;;;;;;5166970;27;19926;-46
2022/06/07 10:41:13;;;;;;;;;;;20.20;52.00;;;;;;5161386;27;19967;-47
2022/06/07 10:43:39;;;;;;;;;;;19.80;51.70;;;;;;5143118;27;20198;-45
2022/06/07 10:46:06;;;;;;;;;;;20.10;53.80;;;;;;5167566;27;19923;-50
2022/06/07 10:48:42;;;;;;;;;;;21.10;53.50;;;;;;5142954;27;20439;-46
2022/06/07 10:54:03;;;;;;;;;;;20.80;51.90;;;;;;5162379;27;19927;-45
2022/06/07 10:56:33;;;;;;;;;;;20.30;51.70;;;;;;5142698;27;19933;-47
2022/06/07 10:58:59;;;;;;;;;;;20.00;51.20;;;;;;5161828;27;20383;-51
2022/06/07 11:01:27;;;;;;;;;;;19.70;51.30;;;;;;5148074;27;19931;-46
2022/06/07 11:09:19;;;;;;;;;;;20.10;54.00;;;;;;5142929;27;19926;-45
2022/06/07 11:09:44;;;;;;;;;;;21.60;51.60;;;;;;5164981;27;19927;-46
2022/06/07 11:12:11;;;;;;;;;;;20.50;52.10;;;;;;5140245;27;19933;-47
2022/06/07 11:14:40;;;;;;;;;;;20.20;51.80;;;;;;5142049;27;20271;-45
2022/06/07 11:17:12;;;;;;;;;;;19.90;51.40;;;;;;5166559;27;19945;-48
2022/06/07 11:19:38;;;;;;;;;;;20.00;53.30;;;;;;5141407;27;20430;-46
2022/06/07 11:22:04;;;;;;;;;;;21.00;53.70;;;;;;5165443;27;19927;-54
2022/06/07 11:24:32;;;;;;;;;;;21.80;51.70;;;;;;5144380;27;19923;-45
2022/06/07 11:27:10;;;;;;;;;;;20.80;52.30;;;;;;5160775;27;20291;-49
2022/06/07 11:29:35;;;;;;;;;;;20.30;52.00;;;;;;5163906;27;20354;-48
2022/06/07 11:32:02;;;;;;;;;;;19.80;51.80;;;;;;5160514;27;19923;-47
2022/06/07 11:34:34;;;;;;;;;;;20.00;52.50;;;;;;5160575;27;20457;-46
2022/06/07 11:37:09;;;;;;;;;;;20.80;54.10;;;;;;5168350;27;20302;-45
2022/06/07 11:39:38;;;;;;;;;;;21.80;51.70;;;;;;5164599;27;19927;-49
2022/06/07 11:42:06;;;;;;;;;;;20.90;52.20;;;;;;5164576;27;19936;-46
2022/06/07 11:44:41;;;;;;;;;;;20.30;51.90;;;;;;5169866;27;20013;-47
2022/06/07 11:47:07;;;;;;;;;;;19.90;51.80;;;;;;5141596;27;20318;-47
2022/06/07 11:49:40;;;;;;;;;;;20.00;53.60;;;;;;5163091;27;19923;-47
2022/06/07 11:52:06;;;;;;;;;;;21.10;53.40;;;;;;5169761;27;19973;-47
2022/06/07 11:54:33;;;;;;;;;;;21.80;51.30;;;;;;5164195;27;19927;-47
2022/06/07 11:56:59;;;;;;;;;;;20.80;51.90;;;;;;5166382;27;20017;-55
2022/06/07 11:59:42;;;;;;;;;;;20.40;51.50;;;;;;5168894;27;20064;-46
2022/06/07 12:02:14;;;;;;;;;;;20.20;51.10;;;;;;5164251;27;19944;-46
2022/06/07 12:04:45;;;;;;;;;;;19.90;51.00;;;;;;5166209;27;19923;-55
2022/06/07 12:07:21;;;;;;;;;;;20.10;53.50;;;;;;5167406;27;20378;-49
2022/06/07 12:09:54;;;;;;;;;;;21.10;53.50;;;;;;5163853;27;19923;-45
2022/06/07 12:12:31;;;;;;;;;;;21.90;51.40;;;;;;5169430;27;19922;-53
2022/06/07 12:15:01;;;;;;;;;;;20.80;52.10;;;;;;5169447;27;19923;-46
2022/06/07 12:17:29;;;;;;;;;;;20.30;51.70;;;;;;5164333;27;20313;-45
2022/06/07 12:19:55;;;;;;;;;;;19.80;51.90;;;;;;5169615;27;19945;-46
2022/06/07 12:22:21;;;;;;;;;;;20.00;52.50;;;;;;5163397;27;20116;-45
2022/06/07 12:24:47;;;;;;;;;;;20.80;54.30;;;;;;5161485;27;20843;-45
2022/06/07 12:27:22;;;;;;;;;;;21.70;52.20;;;;;;5169142;27;19927;-45
2022/06/07 12:29:48;;;;;;;;;;;21.20;51.80;;;;;;5163753;27;19931;-47
2022/06/07 12:32:21;;;;;;;;;;;20.50;52.00;;;;;;5163711;27;19991;-45
2022/06/07 12:34:47;;;;;;;;;;;20.20;51.50;;;;;;5169580;27;19926;-46
2022/06/07 12:37:13;;;;;;;;;;;19.80;51.50;;;;;;5163929;27;19923;-45
2022/06/07 12:39:42;;;;;;;;;;;20.10;53.90;;;;;;5163537;27;19931;-52
2022/06/07 12:42:11;;;;;;;;;;;21.20;53.80;;;;;;5166791;27;19923;-47
2022/06/07 12:44:41;;;;;;;;;;;21.90;51.80;;;;;;5143453;27;19944;-46
2022/06/07 12:47:20;;;;;;;;;;;20.80;52.60;;;;;;5150164;27;19927;-45
2022/06/07 12:49:46;;;;;;;;;;;20.30;52.10;;;;;;5168334;27;19923;-47
2022/06/07 12:52:13;;;;;;;;;;;20.20;51.60;;;;;;5163515;27;19922;-44
2022/06/07 12:54:39;;;;;;;;;;;19.80;51.60;;;;;;5169248;27;19940;-45
2022/06/07 12:57:18;;;;;;;;;;;19.90;53.00;;;;;;5163221;27;19980;-45
2022/06/07 12:59:50;;;;;;;;;;;20.80;54.50;;;;;;5143387;27;19922;-50
2022/06/07 13:02:17;;;;;;;;;;;21.70;52.80;;;;;;5167017;27;20445;-44
2022/06/07 13:04:44;;;;;;;;;;;20.90;52.60;;;;;;5162594;27;20675;-44
2022/06/07 13:07:09;;;;;;;;;;;20.30;52.60;;;;;;5162980;27;20504;-47
2022/06/07 13:09:35;;;;;;;;;;;20.20;51.70;;;;;;5168810;27;19948;-45
2022/06/07 13:12:02;;;;;;;;;;;19.70;52.10;;;;;;5144603;27;19927;-47
2022/06/07 13:14:27;;;;;;;;;;;19.90;54.10;;;;;;5144840;27;19923;-55
2022/06/07 13:16:53;;;;;;;;;;;20.90;54.80;;;;;;5168528;27;19999;-48
2022/06/07 13:19:21;;;;;;;;;;;21.80;52.90;;;;;;5160313;27;19930;-49
2022/06/07 13:21:47;;;;;;;;;;;21.10;52.50;;;;;;5167475;27;20373;-47
2022/06/07 13:24:23;;;;;;;;;;;20.40;52.60;;;;;;5162502;27;20324;-49
2022/06/07 13:26:51;;;;;;;;;;;20.10;52.00;;;;;;5162617;27;19963;-49
2022/06/07 13:29:21;;;;;;;;;;;19.80;51.50;;;;;;5150012;27;19936;-47
2022/06/07 13:31:51;;;;;;;;;;;19.90;53.40;;;;;;5163352;27;20346;-46
2022/06/07 13:34:19;;;;;;;;;;;20.90;54.60;;;;;;5162737;27;20400;-46
2022/06/07 13:37:05;;;;;;;;;;;21.80;52.90;;;;;;5166678;27;19966;-47
2022/06/07 13:39:32;;;;;;;;;;;21.00;52.40;;;;;;5161611;27;19979;-48
2022/06/07 13:42:07;;;;;;;;;;;20.10;52.70;;;;;;5143692;27;20377;-46
2022/06/07 13:44:42;;;;;;;;;;;19.90;52.20;;;;;;5147912;27;19923;-47
2022/06/07 13:47:20;;;;;;;;;;;19.80;52.00;;;;;;5162410;27;19926;-50
2022/06/07 13:55:45;;;;;;;;;;;20.90;52.60;;;;;;5149502;27;19963;-46
2022/06/07 13:58:11;;;;;;;;;;;20.20;52.20;;;;;;5160804;27;21988;-46
2022/06/07 14:00:37;;;;;;;;;;;20.10;51.70;;;;;;5166769;27;19927;-47
2022/06/07 14:03:04;;;;;;;;;;;19.80;52.90;;;;;;5162196;27;20408;-48
2022/06/07 14:05:31;;;;;;;;;;;20.80;54.50;;;;;;5162039;27;19969;-49
2022/06/07 14:07:57;;;;;;;;;;;21.70;52.60;;;;;;5168112;27;20017;-47
2022/06/07 14:10:23;;;;;;;;;;;21.20;52.10;;;;;;5162398;27;20023;-46
2022/06/07 14:12:49;;;;;;;;;;;20.40;52.20;;;;;;5161051;27;19967;-52
2022/06/07 14:15:15;;;;;;;;;;;20.10;51.80;;;;;;5165310;27;19922;-46
2022/06/07 14:17:42;;;;;;;;;;;19.80;51.90;;;;;;5161331;27;20319;-45
2022/06/07 14:20:14;;;;;;;;;;;20.70;54.50;;;;;;5145833;27;20002;-52
2022/06/07 14:22:39;;;;;;;;;;;21.60;52.70;;;;;;5148253;27;19926;-44
2022/06/07 14:25:06;;;;;;;;;;;21.50;51.60;;;;;;5161930;27;20017;-44
2022/06/07 14:27:31;;;;;;;;;;;20.50;52.20;;;;;;5167796;27;19933;-46
2022/06/07 14:29:57;;;;;;;;;;;20.20;51.70;;;;;;5161683;27;19926;-49
2022/06/07 14:32:24;;;;;;;;;;;20.00;51.50;;;;;;5159369;27;19937;-48
2022/06/07 14:34:50;;;;;;;;;;;20.00;53.40;;;;;;5166240;27;20355;-47
2022/06/07 14:37:17;;;;;;;;;;;21.10;53.80;;;;;;5142927;27;19966;-47
2022/06/07 14:39:43;;;;;;;;;;;21.80;52.00;;;;;;5161617;27;19923;-46
2022/06/07 14:42:11;;;;;;;;;;;20.70;52.50;;;;;;5167437;27;19922;-46
2022/06/07 14:44:37;;;;;;;;;;;20.30;52.10;;;;;;5161956;27;19926;-45
2022/06/07 14:47:03;;;;;;;;;;;20.00;51.80;;;;;;5167339;27;20315;-46
2022/06/07 14:49:36;;;;;;;;;;;19.80;51.60;;;;;;5160784;27;19972;-50
2022/06/07 14:52:03;;;;;;;;;;;20.50;54.20;;;;;;5159476;27;20400;-45